Sign-in with your pilot id or email, or register

ICAO: ESSA Name / Country: Arlanda / Sweden
Latitude: 59.6519 Longitude: 17.9186
Total Arrivals:
Strict Standards: Non-static method AirportData::getarrflights() should not be called statically, assuming $this from incompatible context in /var/www/customers/vh-7192/web/home/phpvms/core/templates/airport_info.tpl on line 18
15
Total Departures:
Strict Standards: Non-static method AirportData::getdeptflights() should not be called statically, assuming $this from incompatible context in /var/www/customers/vh-7192/web/home/phpvms/core/templates/airport_info.tpl on line 21
3
Latest Arrival: MTA766 (LHBP-ESSA) Laszlo Bartucz Latest Departure: MTA834 (ESSA-LOWS) Laszlo Bartucz
Metar: ESSA 192120Z 21007KT CAVOK 15/11 Q1010 NOSIG
More info

Charts for ESSA


NOTAM


Warning: file_get_contents(http://api.vateud.net/notams/ESSA.json): failed to open stream: Redirection limit reached, aborting in /var/www/customers/vh-7192/web/home/phpvms/core/common/NOTAMSData.class.php on line 18

Warning: Invalid argument supplied for foreach() in /var/www/customers/vh-7192/web/home/phpvms/core/common/NOTAMSData.class.php on line 22

Arlanda